createdAt,value
2019-02-12T00:00:06.802Z,-0.47
2019-02-12T00:01:06.773Z,-0.62
2019-02-12T00:02:06.742Z,-0.62
2019-02-12T00:03:06.717Z,-0.69
2019-02-12T00:04:06.690Z,-0.59
2019-02-12T00:05:06.675Z,-0.52
2019-02-12T00:06:06.643Z,-0.57
2019-02-12T00:07:06.617Z,-0.45
2019-02-12T00:08:06.591Z,-0.41
2019-02-12T00:09:06.559Z,-0.42
2019-02-12T00:10:06.535Z,-0.51
2019-02-12T00:11:06.509Z,-0.57
2019-02-12T00:12:06.505Z,-0.54
2019-02-12T00:13:06.465Z,-0.63
2019-02-12T00:14:06.430Z,-0.72
2019-02-12T00:15:06.403Z,-0.70
2019-02-12T00:16:06.385Z,-0.68
2019-02-12T00:17:06.364Z,-0.62
2019-02-12T00:18:06.326Z,-0.59
2019-02-12T00:19:06.307Z,-0.50
2019-02-12T00:20:06.275Z,-0.57
2019-02-12T00:21:09.148Z,-0.60
2019-02-12T00:22:06.222Z,-0.51
2019-02-12T00:23:06.193Z,-0.57
2019-02-12T00:24:06.167Z,-0.57
2019-02-12T00:25:06.143Z,-0.65
2019-02-12T00:26:06.129Z,-0.68
2019-02-12T00:27:06.098Z,-0.70
2019-02-12T00:28:06.075Z,-0.66
2019-02-12T00:29:06.037Z,-0.73
2019-02-12T00:30:06.011Z,-0.68
2019-02-12T00:31:05.986Z,-0.63
2019-02-12T00:32:05.961Z,-0.73
2019-02-12T00:33:05.945Z,-0.68
2019-02-12T00:34:05.906Z,-0.66
2019-02-12T00:35:05.883Z,-0.68
2019-02-12T00:36:05.861Z,-0.59
2019-02-12T00:37:05.831Z,-0.55
2019-02-12T00:38:05.810Z,-0.50
2019-02-12T00:39:05.780Z,-0.39
2019-02-12T00:40:05.751Z,-0.30
2019-02-12T00:41:05.732Z,-0.08
2019-02-12T00:42:05.706Z,0.10
2019-02-12T00:43:05.678Z,0.28
2019-02-12T00:44:05.652Z,0.43
2019-02-12T00:45:05.621Z,0.61
2019-02-12T00:46:05.598Z,0.79
2019-02-12T00:47:05.570Z,0.76
2019-02-12T00:48:05.548Z,0.94
2019-02-12T00:49:05.525Z,1.03
2019-02-12T00:50:05.490Z,1.15
2019-02-12T00:51:05.465Z,1.15
2019-02-12T00:52:05.438Z,1.12
2019-02-12T00:53:05.415Z,1.22
2019-02-12T00:54:05.388Z,1.12
2019-02-12T00:55:05.363Z,1.21
2019-02-12T00:56:05.333Z,1.29
2019-02-12T00:57:05.310Z,1.40
2019-02-12T00:58:05.287Z,1.37
2019-02-12T00:59:05.259Z,1.50
2019-02-12T01:00:05.244Z,1.54
2019-02-12T01:01:05.207Z,1.69
2019-02-12T01:02:05.181Z,1.69
2019-02-12T01:03:05.156Z,1.62
2019-02-12T01:04:05.137Z,1.62
2019-02-12T01:05:05.111Z,1.65
2019-02-12T01:06:05.086Z,1.60
2019-02-12T01:07:05.057Z,1.76
2019-02-12T01:08:05.297Z,1.75
2019-02-12T01:09:05.089Z,1.87
2019-02-12T01:10:05.002Z,1.97
2019-02-12T01:11:04.957Z,1.94
2019-02-12T01:12:04.959Z,1.93
2019-02-12T01:13:05.584Z,1.93
2019-02-12T01:14:04.928Z,1.94
2019-02-12T01:15:04.852Z,2.01
2019-02-12T01:16:04.826Z,1.99
2019-02-12T01:17:04.800Z,2.04
2019-02-12T01:18:04.781Z,2.06
2019-02-12T01:19:04.755Z,2.02
2019-02-12T01:20:04.727Z,2.01
2019-02-12T01:21:04.701Z,2.02
2019-02-12T01:22:04.677Z,2.02
2019-02-12T01:23:04.653Z,2.01
2019-02-12T01:24:04.633Z,1.99
2019-02-12T01:25:04.608Z,1.94
2019-02-12T01:26:04.576Z,1.94
2019-02-12T01:27:04.549Z,1.94
2019-02-12T01:28:04.523Z,1.94
2019-02-12T01:29:04.498Z,1.97
2019-02-12T01:30:04.480Z,1.93
2019-02-12T01:31:04.453Z,2.04
2019-02-12T01:32:04.435Z,2.06
2019-02-12T01:33:04.403Z,2.06
2019-02-12T01:34:04.380Z,2.09
2019-02-12T01:35:04.357Z,2.06
2019-02-12T01:36:04.329Z,2.08
2019-02-12T01:37:04.304Z,2.08
2019-02-12T01:38:04.277Z,2.02
2019-02-12T01:39:04.253Z,2.04
2019-02-12T01:40:04.227Z,2.16
2019-02-12T01:41:04.199Z,2.17
2019-02-12T01:42:04.179Z,2.19
2019-02-12T01:43:04.147Z,2.23
2019-02-12T01:44:04.149Z,2.20
2019-02-12T01:45:04.102Z,2.28
2019-02-12T01:46:04.070Z,2.40
2019-02-12T01:47:04.060Z,2.40
2019-02-12T01:48:04.023Z,2.49
2019-02-12T01:49:04.009Z,2.46
2019-02-12T01:50:03.974Z,2.48
2019-02-12T01:51:03.953Z,2.49
2019-02-12T01:52:03.925Z,2.69
2019-02-12T01:53:03.898Z,2.63
2019-02-12T01:54:03.872Z,2.70
2019-02-12T01:55:03.853Z,2.81
2019-02-12T01:56:03.829Z,2.70
2019-02-12T01:57:03.797Z,2.74
2019-02-12T01:58:03.771Z,2.73
2019-02-12T01:59:03.755Z,2.77
2019-02-12T02:00:03.724Z,2.70
2019-02-12T02:01:03.698Z,2.74
2019-02-12T02:02:03.679Z,2.82
2019-02-12T02:03:03.653Z,2.82
2019-02-12T02:04:03.632Z,2.74
2019-02-12T02:05:03.610Z,2.79
2019-02-12T02:06:03.570Z,2.73
2019-02-12T02:07:03.548Z,2.79
2019-02-12T02:08:03.523Z,2.73
2019-02-12T02:09:03.503Z,2.79
2019-02-12T02:10:03.478Z,2.84
2019-02-12T02:11:03.446Z,2.87
2019-02-12T02:12:03.426Z,2.88
2019-02-12T02:13:03.410Z,2.91
2019-02-12T02:14:03.371Z,2.88
2019-02-12T02:15:03.349Z,2.98
2019-02-12T02:16:03.329Z,3.07
2019-02-12T02:17:03.304Z,2.91
2019-02-12T02:18:03.277Z,3.05
2019-02-12T02:19:03.266Z,2.94
2019-02-12T02:20:03.224Z,3.07
2019-02-12T02:21:03.200Z,3.02
2019-02-12T02:22:03.180Z,3.06
2019-02-12T02:23:03.155Z,2.98
2019-02-12T02:24:03.132Z,3.06
2019-02-12T02:25:03.108Z,3.10
2019-02-12T02:26:03.083Z,3.05
2019-02-12T02:27:03.058Z,3.06
2019-02-12T02:28:03.023Z,3.09
2019-02-12T02:29:03.007Z,3.10
2019-02-12T02:30:02.989Z,3.10
2019-02-12T02:31:02.952Z,3.05
2019-02-12T02:32:02.924Z,3.10
2019-02-12T02:33:02.901Z,3.06
2019-02-12T02:34:02.876Z,3.13
2019-02-12T02:35:02.857Z,3.13
2019-02-12T02:36:02.827Z,3.09
2019-02-12T02:37:02.804Z,3.07
2019-02-12T02:38:02.782Z,3.09
2019-02-12T02:39:02.758Z,3.05
2019-02-12T02:40:02.739Z,2.91
2019-02-12T02:41:02.704Z,3.02
2019-02-12T02:42:02.684Z,3.09
2019-02-12T02:43:02.658Z,3.06
2019-02-12T02:44:02.636Z,3.21
2019-02-12T02:45:02.607Z,3.23
2019-02-12T02:46:02.584Z,3.18
2019-02-12T02:47:02.559Z,3.23
2019-02-12T02:48:02.539Z,3.27
2019-02-12T02:49:02.511Z,3.24
2019-02-12T02:50:03.450Z,3.27
2019-02-12T02:51:02.452Z,3.34
2019-02-12T02:52:02.436Z,3.43
2019-02-12T02:53:02.411Z,3.49
2019-02-12T02:54:02.379Z,3.42
2019-02-12T02:55:02.366Z,3.43
2019-02-12T02:56:02.331Z,3.31
2019-02-12T02:57:02.307Z,3.36
2019-02-12T02:58:02.286Z,3.46
2019-02-12T02:59:02.255Z,3.43
2019-02-12T03:00:02.236Z,3.44
2019-02-12T03:01:02.216Z,3.40
2019-02-12T03:02:02.188Z,3.44
2019-02-12T03:03:02.156Z,3.46
2019-02-12T03:04:02.137Z,3.54
2019-02-12T03:05:02.115Z,3.57
2019-02-12T03:06:02.086Z,3.58
2019-02-12T03:07:02.073Z,3.49
2019-02-12T03:08:02.041Z,3.46
2019-02-12T03:09:02.007Z,3.43
2019-02-12T03:10:01.985Z,3.47
2019-02-12T03:11:01.965Z,3.44
2019-02-12T03:12:01.949Z,3.58
2019-02-12T03:13:01.913Z,3.42
2019-02-12T03:14:01.886Z,3.61
2019-02-12T03:15:01.865Z,3.43
2019-02-12T03:16:01.845Z,3.57
2019-02-12T03:17:01.819Z,3.46
2019-02-12T03:18:01.788Z,3.64
2019-02-12T03:19:01.761Z,3.60
2019-02-12T03:20:01.749Z,3.52
2019-02-12T03:21:01.715Z,3.47
2019-02-12T03:22:03.769Z,3.47
2019-02-12T03:23:01.664Z,3.43
2019-02-12T03:24:01.637Z,3.44
2019-02-12T03:25:01.626Z,3.47
2019-02-12T03:26:01.594Z,3.47
2019-02-12T03:27:01.561Z,3.44
2019-02-12T03:28:01.546Z,3.46
2019-02-12T03:29:01.525Z,3.47
2019-02-12T03:30:01.495Z,3.46
2019-02-12T03:31:01.471Z,3.50
2019-02-12T03:32:01.448Z,3.58
2019-02-12T03:33:01.430Z,3.79
2019-02-12T03:34:01.400Z,3.75
2019-02-12T03:35:01.374Z,3.78
2019-02-12T03:36:01.358Z,3.78
2019-02-12T03:37:01.322Z,3.80
2019-02-12T03:38:01.310Z,3.72
2019-02-12T03:39:01.266Z,3.78
2019-02-12T03:40:01.253Z,3.80
2019-02-12T03:41:01.220Z,3.78
2019-02-12T03:42:01.201Z,3.67
2019-02-12T03:43:01.168Z,3.72
2019-02-12T03:44:01.152Z,3.62
2019-02-12T03:45:01.128Z,3.65
2019-02-12T03:46:01.098Z,3.64
2019-02-12T03:47:01.076Z,3.57
2019-02-12T03:48:01.043Z,3.61
2019-02-12T03:49:01.022Z,3.64
2019-02-12T03:50:01.005Z,3.57
2019-02-12T03:51:00.971Z,3.58
2019-02-12T03:52:00.948Z,3.52
2019-02-12T03:53:00.930Z,3.46
2019-02-12T03:54:00.905Z,3.57
2019-02-12T03:55:00.882Z,3.44
2019-02-12T03:56:00.847Z,3.46
2019-02-12T03:57:00.829Z,3.53
2019-02-12T03:58:00.798Z,3.46
2019-02-12T03:59:00.775Z,3.43
2019-02-12T04:00:00.755Z,3.47
2019-02-12T04:01:00.727Z,3.46
2019-02-12T04:02:00.711Z,3.43
2019-02-12T04:03:00.697Z,3.47
2019-02-12T04:04:00.647Z,3.44
2019-02-12T04:05:00.636Z,3.46
2019-02-12T04:06:00.601Z,3.46
2019-02-12T04:07:00.583Z,3.43
2019-02-12T04:08:00.569Z,3.47
2019-02-12T04:09:00.530Z,3.46
2019-02-12T04:10:00.698Z,3.50
2019-02-12T04:11:00.481Z,3.46
2019-02-12T04:12:00.461Z,3.44
2019-02-12T04:13:00.427Z,3.44
2019-02-12T04:14:00.421Z,3.44
2019-02-12T04:15:00.380Z,3.44
2019-02-12T04:16:00.376Z,3.47
2019-02-12T04:17:00.339Z,3.46
2019-02-12T04:18:00.305Z,3.47
2019-02-12T04:19:00.287Z,3.39
2019-02-12T04:20:00.258Z,3.46
2019-02-12T04:21:00.236Z,3.47
2019-02-12T04:22:00.206Z,3.43
2019-02-12T04:23:00.180Z,3.47
2019-02-12T04:24:00.164Z,3.46
2019-02-12T04:25:00.233Z,3.54
2019-02-12T04:26:00.119Z,3.54
2019-02-12T04:27:00.084Z,3.62
2019-02-12T04:28:00.062Z,3.70
2019-02-12T04:29:00.043Z,3.75
2019-02-12T04:30:00.014Z,3.78
2019-02-12T04:30:59.995Z,3.80
2019-02-12T04:31:59.960Z,3.80
2019-02-12T04:32:59.937Z,3.82
2019-02-12T04:33:59.919Z,3.82
2019-02-12T04:34:59.893Z,3.72
2019-02-12T04:35:59.861Z,3.85
2019-02-12T04:36:59.843Z,3.88
2019-02-12T04:37:59.827Z,3.70
2019-02-12T04:38:59.790Z,3.72
2019-02-12T04:39:59.763Z,3.75
2019-02-12T04:40:59.745Z,3.75
2019-02-12T04:41:59.722Z,3.76
2019-02-12T04:42:59.699Z,3.76
2019-02-12T04:43:59.671Z,3.71
2019-02-12T04:44:59.647Z,3.75
2019-02-12T04:45:59.623Z,3.72
2019-02-12T04:46:59.597Z,3.71
2019-02-12T04:47:59.574Z,3.76
2019-02-12T04:48:59.552Z,3.72
2019-02-12T04:49:59.525Z,3.76
2019-02-12T04:50:59.498Z,3.75
2019-02-12T04:51:59.472Z,3.80
2019-02-12T04:52:59.448Z,3.62
2019-02-12T04:53:59.418Z,3.72
2019-02-12T04:54:59.400Z,3.75
2019-02-12T04:55:59.370Z,3.75
2019-02-12T04:56:59.351Z,3.78
2019-02-12T04:57:59.326Z,3.72
2019-02-12T04:58:59.301Z,3.83
2019-02-12T04:59:59.276Z,3.83
2019-02-12T05:00:59.556Z,3.88
2019-02-12T05:01:59.222Z,3.71
2019-02-12T05:02:59.194Z,3.83
2019-02-12T05:03:59.172Z,3.82
2019-02-12T05:04:59.154Z,3.82
2019-02-12T05:05:59.132Z,3.72
2019-02-12T05:06:59.103Z,3.76
2019-02-12T05:07:59.079Z,3.82
2019-02-12T05:08:59.054Z,3.76
2019-02-12T05:09:59.023Z,3.68
2019-02-12T05:10:58.998Z,3.72
2019-02-12T05:11:58.982Z,3.72
2019-02-12T05:12:58.953Z,3.75
2019-02-12T05:13:58.930Z,3.76
2019-02-12T05:14:58.909Z,3.86
2019-02-12T05:15:58.879Z,3.82
2019-02-12T05:16:58.864Z,3.88
2019-02-12T05:17:58.827Z,3.71
2019-02-12T05:18:58.807Z,3.86
2019-02-12T05:19:58.778Z,3.82
2019-02-12T05:20:58.752Z,3.75
2019-02-12T05:21:58.726Z,3.76
2019-02-12T05:22:58.704Z,3.75
2019-02-12T05:23:59.173Z,3.80
2019-02-12T05:24:58.665Z,3.78
2019-02-12T05:25:58.633Z,3.70
2019-02-12T05:26:58.607Z,3.67
2019-02-12T05:27:58.588Z,3.58
2019-02-12T05:28:58.564Z,3.67
2019-02-12T05:29:58.537Z,3.65
2019-02-12T05:30:58.504Z,3.70
2019-02-12T05:31:58.483Z,3.65
2019-02-12T05:32:58.460Z,3.62
2019-02-12T05:33:58.443Z,3.54
2019-02-12T05:34:58.414Z,3.64
2019-02-12T05:35:58.388Z,3.62
2019-02-12T05:36:58.359Z,3.64
2019-02-12T05:37:58.339Z,3.67
2019-02-12T05:38:58.318Z,3.75
2019-02-12T05:39:58.285Z,3.68
2019-02-12T05:40:58.269Z,3.62
2019-02-12T05:41:58.243Z,3.71
2019-02-12T05:42:58.213Z,3.65
2019-02-12T05:43:58.192Z,3.75
2019-02-12T05:44:58.166Z,3.70
2019-02-12T05:45:58.141Z,3.71
2019-02-12T05:46:58.118Z,3.71
2019-02-12T05:47:58.090Z,3.75
2019-02-12T05:48:58.073Z,3.62
2019-02-12T05:49:58.042Z,3.65
2019-02-12T05:50:58.015Z,3.62
2019-02-12T05:51:58.000Z,3.67
2019-02-12T05:52:57.967Z,3.65
2019-02-12T05:53:57.946Z,3.53
2019-02-12T05:54:57.926Z,3.65
2019-02-12T05:55:57.895Z,3.57
2019-02-12T05:56:57.871Z,3.57
2019-02-12T05:57:57.849Z,3.67
2019-02-12T05:58:57.817Z,3.70
2019-02-12T05:59:57.794Z,3.67
2019-02-12T06:00:57.791Z,3.54
2019-02-12T06:01:57.744Z,3.70
2019-02-12T06:02:57.727Z,3.67
2019-02-12T06:03:57.695Z,3.54
2019-02-12T06:04:57.669Z,3.64
2019-02-12T06:05:57.643Z,3.61
2019-02-12T06:06:57.622Z,3.64
2019-02-12T06:07:57.603Z,3.57
2019-02-12T06:08:57.574Z,3.57
2019-02-12T06:09:57.557Z,3.65
2019-02-12T06:10:57.538Z,3.65
2019-02-12T06:11:57.518Z,3.67
2019-02-12T06:12:57.474Z,3.58
2019-02-12T06:13:57.456Z,3.58
2019-02-12T06:14:57.427Z,3.60
2019-02-12T06:15:57.411Z,3.58
2019-02-12T06:16:57.376Z,3.60
2019-02-12T06:17:57.351Z,3.54
2019-02-12T06:18:57.325Z,3.54
2019-02-12T06:19:57.303Z,3.53
2019-02-12T06:20:57.287Z,3.58
2019-02-12T06:21:57.252Z,3.64
2019-02-12T06:23:03.419Z,3.65
2019-02-12T06:23:57.207Z,3.67
2019-02-12T06:24:57.185Z,3.65
2019-02-12T06:25:57.171Z,3.68
2019-02-12T06:26:57.134Z,3.70
2019-02-12T06:27:57.105Z,3.76
2019-02-12T06:28:57.087Z,3.67
2019-02-12T06:29:57.060Z,3.54
2019-02-12T06:30:57.035Z,3.60
2019-02-12T06:31:57.013Z,3.46
2019-02-12T06:32:56.981Z,3.44
2019-02-12T06:33:56.958Z,3.42
2019-02-12T06:34:57.009Z,3.43
2019-02-12T06:35:56.913Z,3.46
2019-02-12T06:36:56.882Z,3.44
2019-02-12T06:37:56.873Z,3.49
2019-02-12T06:38:56.841Z,3.52
2019-02-12T06:39:56.818Z,3.58
2019-02-12T06:40:56.786Z,3.60
2019-02-12T06:41:56.766Z,3.46
2019-02-12T06:42:56.741Z,3.47
2019-02-12T06:43:56.713Z,3.46
2019-02-12T06:44:56.690Z,3.47
2019-02-12T06:45:56.661Z,3.47
2019-02-12T06:46:56.640Z,3.44
2019-02-12T06:47:56.615Z,3.46
2019-02-12T06:48:56.588Z,3.58
2019-02-12T06:49:56.566Z,3.58
2019-02-12T06:50:56.537Z,3.53
2019-02-12T06:51:56.518Z,3.60
2019-02-12T06:52:56.490Z,3.61
2019-02-12T06:53:56.461Z,3.64
2019-02-12T06:54:56.436Z,3.62
2019-02-12T06:55:56.413Z,3.68
2019-02-12T06:56:56.387Z,3.68
2019-02-12T06:57:56.373Z,3.62
2019-02-12T06:58:56.337Z,3.65
2019-02-12T06:59:56.315Z,3.65
2019-02-12T07:00:56.292Z,3.75
2019-02-12T07:01:56.270Z,3.65
2019-02-12T07:02:56.242Z,3.68
2019-02-12T07:03:56.214Z,3.70
2019-02-12T07:04:56.191Z,3.68
2019-02-12T07:05:56.169Z,3.78
2019-02-12T07:06:56.140Z,3.67
2019-02-12T07:07:56.479Z,3.72
2019-02-12T07:08:56.100Z,3.70
2019-02-12T07:09:56.073Z,3.71
2019-02-12T07:10:56.043Z,3.70
2019-02-12T07:11:56.020Z,3.71
2019-02-12T07:12:56.002Z,3.72
2019-02-12T07:13:55.969Z,3.68
2019-02-12T07:14:55.968Z,3.68
2019-02-12T07:15:55.921Z,3.78
2019-02-12T07:16:55.902Z,3.83
2019-02-12T07:17:55.871Z,3.86
2019-02-12T07:18:55.847Z,3.72
2019-02-12T07:19:55.824Z,3.86
2019-02-12T07:20:55.796Z,3.71
2019-02-12T07:21:55.773Z,3.78
2019-02-12T07:22:55.752Z,3.79
2019-02-12T07:23:55.734Z,3.88
2019-02-12T07:24:55.734Z,3.82
2019-02-12T07:25:55.678Z,3.88
2019-02-12T07:26:55.658Z,3.92
2019-02-12T07:27:55.637Z,3.90
2019-02-12T07:28:55.603Z,3.94
2019-02-12T07:29:55.583Z,3.88
2019-02-12T07:30:55.559Z,3.90
2019-02-12T07:31:55.535Z,3.89
2019-02-12T07:32:55.507Z,3.90
2019-02-12T07:33:55.490Z,3.92
2019-02-12T07:34:55.452Z,3.88
2019-02-12T07:35:55.433Z,3.86
2019-02-12T07:36:55.423Z,3.90
2019-02-12T07:37:55.379Z,3.92
2019-02-12T07:38:55.356Z,3.96
2019-02-12T07:39:55.354Z,3.94
2019-02-12T07:40:55.305Z,3.98
2019-02-12T07:41:55.308Z,3.94
2019-02-12T07:42:55.264Z,3.96
2019-02-12T07:43:55.243Z,3.96
2019-02-12T07:44:55.213Z,3.90
2019-02-12T07:45:55.195Z,3.94
2019-02-12T07:46:55.167Z,3.90
2019-02-12T07:47:55.134Z,3.97
2019-02-12T07:48:55.127Z,3.89
2019-02-12T07:49:55.090Z,3.90
2019-02-12T07:50:55.061Z,3.86
2019-02-12T07:51:55.037Z,3.88
2019-02-12T07:52:55.018Z,3.90
2019-02-12T07:53:54.996Z,3.90
2019-02-12T07:54:54.991Z,3.88
2019-02-12T07:55:54.939Z,3.86
2019-02-12T07:56:54.924Z,3.86
2019-02-12T07:57:54.894Z,3.92
2019-02-12T07:58:54.870Z,3.96
2019-02-12T07:59:54.843Z,3.94
2019-02-12T08:00:54.824Z,3.97
2019-02-12T08:01:54.795Z,3.89
2019-02-12T08:02:54.766Z,3.89
2019-02-12T08:03:54.745Z,3.94
2019-02-12T08:04:54.726Z,3.96
2019-02-12T08:05:54.707Z,3.94
2019-02-12T08:06:54.681Z,3.96
2019-02-12T08:07:54.645Z,3.90
2019-02-12T08:08:54.635Z,3.89
2019-02-12T08:09:54.597Z,3.98
2019-02-12T08:10:54.581Z,3.94
2019-02-12T08:11:54.551Z,4.06
2019-02-12T08:12:54.527Z,4.08
2019-02-12T08:13:54.498Z,4.01
2019-02-12T08:14:54.482Z,4.03
2019-02-12T08:15:54.508Z,4.12
2019-02-12T08:16:54.430Z,4.14
2019-02-12T08:17:54.408Z,4.12
2019-02-12T08:18:54.387Z,4.08
2019-02-12T08:19:54.356Z,4.15
2019-02-12T08:20:54.339Z,4.18
2019-02-12T08:21:54.313Z,4.15
2019-02-12T08:22:54.285Z,4.19
2019-02-12T08:23:54.267Z,4.18
2019-02-12T08:24:54.234Z,4.16
2019-02-12T08:25:54.231Z,4.21
2019-02-12T08:26:54.191Z,4.16
2019-02-12T08:27:54.164Z,4.24
2019-02-12T08:28:54.138Z,4.22
2019-02-12T08:29:54.119Z,4.33
2019-02-12T08:30:54.099Z,4.28
2019-02-12T08:31:54.071Z,4.32
2019-02-12T08:32:54.047Z,4.24
2019-02-12T08:33:54.014Z,4.25
2019-02-12T08:34:53.998Z,4.24
2019-02-12T08:35:57.199Z,4.28
2019-02-12T08:36:53.943Z,4.32
2019-02-12T08:37:53.925Z,4.36
2019-02-12T08:38:53.899Z,4.29
2019-02-12T08:39:55.391Z,4.43
2019-02-12T08:40:53.850Z,4.44
2019-02-12T08:41:53.821Z,4.46
2019-02-12T08:42:53.807Z,4.46
2019-02-12T08:43:53.812Z,4.50
2019-02-12T08:44:53.757Z,4.57
2019-02-12T08:45:53.737Z,4.54
2019-02-12T08:46:53.707Z,4.55
2019-02-12T08:47:53.691Z,4.55
2019-02-12T08:48:53.681Z,4.50
2019-02-12T08:49:53.633Z,4.54
2019-02-12T08:50:53.617Z,4.62
2019-02-12T08:51:53.591Z,4.61
2019-02-12T08:52:53.568Z,4.62
2019-02-12T08:53:53.541Z,4.65
2019-02-12T08:54:53.519Z,4.47
2019-02-12T08:55:53.496Z,4.58
2019-02-12T08:56:53.469Z,4.58
2019-02-12T08:57:53.441Z,4.52
2019-02-12T08:58:53.418Z,4.52
2019-02-12T08:59:53.397Z,4.57
2019-02-12T09:00:53.380Z,4.52
2019-02-12T09:01:53.349Z,4.47
2019-02-12T09:02:53.323Z,4.58
2019-02-12T09:03:53.300Z,4.52
2019-02-12T09:04:53.281Z,4.54
2019-02-12T09:05:53.262Z,4.52
2019-02-12T09:06:53.235Z,4.62
2019-02-12T09:07:53.203Z,4.59
2019-02-12T09:08:53.187Z,4.67
2019-02-12T09:09:53.163Z,4.58
2019-02-12T09:10:53.145Z,4.72
2019-02-12T09:11:53.120Z,4.69
2019-02-12T09:12:53.085Z,4.77
2019-02-12T09:13:53.059Z,4.83
2019-02-12T09:14:53.037Z,4.83
2019-02-12T09:15:53.021Z,4.89
2019-02-12T09:16:52.995Z,4.98
2019-02-12T09:17:52.973Z,5.05
2019-02-12T09:18:52.968Z,5.04
2019-02-12T09:19:52.921Z,4.98
2019-02-12T09:20:52.920Z,4.89
2019-02-12T09:21:52.880Z,4.95
2019-02-12T09:22:52.870Z,5.02
2019-02-12T09:23:59.939Z,5.07
2019-02-12T09:24:52.803Z,5.04
2019-02-12T09:25:52.783Z,5.04
2019-02-12T09:26:52.754Z,4.96
2019-02-12T09:27:52.735Z,5.09
2019-02-12T09:28:52.707Z,5.09
2019-02-12T09:29:52.688Z,5.13
2019-02-12T09:30:52.670Z,5.04
2019-02-12T09:31:52.641Z,5.09
2019-02-12T09:32:52.628Z,5.27
2019-02-12T09:33:52.599Z,5.31
2019-02-12T09:34:52.573Z,5.35
2019-02-12T09:35:52.551Z,5.60
2019-02-12T09:36:52.525Z,5.52
2019-02-12T09:37:52.507Z,5.57
2019-02-12T09:38:52.481Z,5.57
2019-02-12T09:39:52.470Z,5.46
2019-02-12T09:40:52.427Z,5.48
2019-02-12T09:41:52.405Z,5.37
2019-02-12T09:42:52.385Z,5.37
2019-02-12T09:43:52.367Z,5.41
2019-02-12T09:44:52.338Z,5.35
2019-02-12T09:45:52.319Z,5.45
2019-02-12T09:46:52.296Z,5.38
2019-02-12T09:47:52.270Z,5.48
2019-02-12T09:48:52.246Z,5.35
2019-02-12T09:49:52.220Z,5.48
2019-02-12T09:50:52.202Z,5.46
2019-02-12T09:51:52.181Z,5.57
2019-02-12T09:52:52.152Z,5.67
2019-02-12T09:53:52.136Z,5.67
2019-02-12T09:54:54.118Z,5.68
2019-02-12T09:55:52.093Z,5.57
2019-02-12T09:56:52.067Z,5.55
2019-02-12T09:57:52.041Z,5.66
2019-02-12T09:58:52.015Z,5.55
2019-02-12T09:59:51.994Z,5.48
2019-02-12T10:00:51.983Z,5.49
2019-02-12T10:01:51.948Z,5.31
2019-02-12T10:02:51.934Z,5.34
2019-02-12T10:03:51.905Z,5.34
2019-02-12T10:04:51.884Z,5.32
2019-02-12T10:05:51.865Z,5.40
2019-02-12T10:06:51.840Z,5.43
2019-02-12T10:07:51.899Z,5.48
2019-02-12T10:08:51.790Z,5.43
2019-02-12T10:09:51.772Z,5.63
2019-02-12T10:10:51.749Z,5.53
2019-02-12T10:11:51.715Z,5.53
2019-02-12T10:12:51.706Z,5.57
2019-02-12T10:13:51.674Z,5.66
2019-02-12T10:14:51.656Z,5.82
2019-02-12T10:15:51.640Z,5.83
2019-02-12T10:16:51.609Z,5.74
2019-02-12T10:17:51.586Z,5.71
2019-02-12T10:18:51.559Z,5.82
2019-02-12T10:19:51.541Z,5.67
2019-02-12T10:20:51.583Z,5.73
2019-02-12T10:21:51.499Z,5.77
2019-02-12T10:22:51.473Z,5.77
2019-02-12T10:23:51.448Z,5.77
2019-02-12T10:24:51.428Z,5.83
2019-02-12T10:25:51.396Z,6.03
2019-02-12T10:26:51.389Z,5.88
2019-02-12T10:27:51.357Z,5.81
2019-02-12T10:28:51.339Z,5.73
2019-02-12T10:29:51.322Z,5.75
2019-02-12T10:30:51.290Z,5.83
2019-02-12T10:31:51.269Z,5.73
2019-02-12T10:32:51.248Z,5.68
2019-02-12T10:33:51.221Z,5.63
2019-02-12T10:34:51.199Z,5.68
2019-02-12T10:35:51.179Z,5.66
2019-02-12T10:36:51.160Z,5.66
2019-02-12T10:37:51.131Z,5.70
2019-02-12T10:38:51.127Z,5.77
2019-02-12T10:39:51.080Z,5.73
2019-02-12T10:40:51.066Z,5.78
2019-02-12T10:41:51.038Z,5.86
2019-02-12T10:42:51.022Z,5.95
2019-02-12T10:43:50.988Z,5.81
2019-02-12T10:44:50.965Z,6.01
2019-02-12T10:45:50.955Z,6.01
2019-02-12T10:46:50.938Z,5.93
2019-02-12T10:47:50.898Z,6.00
2019-02-12T10:48:50.878Z,6.04
2019-02-12T10:49:50.859Z,6.14
2019-02-12T10:50:50.837Z,5.98
2019-02-12T10:51:51.080Z,5.92
2019-02-12T10:52:50.784Z,6.07
2019-02-12T10:53:50.762Z,6.00
2019-02-12T10:54:50.740Z,6.06
2019-02-12T10:55:50.724Z,6.22
2019-02-12T10:56:50.695Z,6.22
2019-02-12T10:57:50.672Z,6.19
2019-02-12T10:58:50.650Z,6.19
2019-02-12T10:59:50.637Z,6.21
2019-02-12T11:00:50.605Z,6.32
2019-02-12T11:01:50.590Z,6.29
2019-02-12T11:02:50.570Z,6.18
2019-02-12T11:03:50.539Z,6.19
2019-02-12T11:04:50.521Z,6.06
2019-02-12T11:05:50.495Z,6.11
2019-02-12T11:06:50.474Z,6.11
2019-02-12T11:07:50.451Z,6.16
2019-02-12T11:08:50.425Z,6.18
2019-02-12T11:09:50.406Z,6.18
2019-02-12T11:10:50.381Z,6.09
2019-02-12T11:11:50.358Z,6.09
2019-02-12T11:12:50.342Z,6.11
2019-02-12T11:13:50.317Z,6.10
2019-02-12T11:14:50.292Z,5.98
2019-02-12T11:15:50.269Z,6.03
2019-02-12T11:16:50.250Z,6.00
2019-02-12T11:17:50.228Z,6.04
2019-02-12T11:18:50.200Z,6.13
2019-02-12T11:19:50.184Z,6.19
2019-02-12T11:20:50.162Z,6.21
2019-02-12T11:21:50.134Z,6.18
2019-02-12T11:22:50.117Z,6.21
2019-02-12T11:23:50.092Z,6.21
2019-02-12T11:24:50.065Z,6.22
2019-02-12T11:25:50.047Z,6.09
2019-02-12T11:26:50.022Z,6.09
2019-02-12T11:27:49.997Z,6.21
2019-02-12T11:28:49.973Z,6.16
2019-02-12T11:29:49.954Z,6.29
2019-02-12T11:30:49.935Z,6.40
2019-02-12T11:31:49.917Z,6.38
2019-02-12T11:32:49.887Z,6.32
2019-02-12T11:33:49.868Z,6.47
2019-02-12T11:34:49.843Z,6.61
2019-02-12T11:35:49.814Z,6.71
2019-02-12T11:36:49.796Z,6.83
2019-02-12T11:37:49.775Z,6.84
2019-02-12T11:38:49.755Z,6.79
2019-02-12T11:39:49.727Z,6.90
2019-02-12T11:40:49.705Z,6.80
2019-02-12T11:41:49.689Z,6.54
2019-02-12T11:42:49.664Z,6.43
2019-02-12T11:43:49.642Z,6.51
2019-02-12T11:44:49.619Z,6.43
2019-02-12T11:45:49.596Z,6.47
2019-02-12T11:46:49.574Z,6.40
2019-02-12T11:47:49.552Z,6.21
2019-02-12T11:48:49.533Z,6.19
2019-02-12T11:49:49.510Z,6.18
2019-02-12T11:50:49.488Z,6.14
2019-02-12T11:51:49.468Z,6.26
2019-02-12T11:52:49.444Z,6.19
2019-02-12T11:53:49.428Z,6.36
2019-02-12T11:54:49.403Z,6.41
2019-02-12T11:55:49.380Z,6.44
2019-02-12T11:56:49.359Z,6.40
2019-02-12T11:57:49.335Z,6.32
2019-02-12T11:58:49.313Z,6.41
2019-02-12T11:59:49.289Z,6.46
2019-02-12T12:00:49.269Z,6.69
2019-02-12T12:01:49.252Z,6.73
2019-02-12T12:02:49.224Z,6.71
2019-02-12T12:03:49.205Z,6.73
2019-02-12T12:04:49.180Z,6.73
2019-02-12T12:05:49.158Z,6.66
2019-02-12T12:06:49.135Z,6.50
2019-02-12T12:07:49.110Z,6.54
2019-02-12T12:08:49.090Z,6.50
2019-02-12T12:09:49.068Z,6.46
2019-02-12T12:10:49.055Z,6.51
2019-02-12T12:11:49.051Z,6.47
2019-02-12T12:12:49.001Z,6.36
2019-02-12T12:13:48.997Z,6.36
2019-02-12T12:14:48.956Z,6.47
2019-02-12T12:15:48.936Z,6.48
2019-02-12T12:16:48.910Z,6.51
2019-02-12T12:17:48.887Z,6.66
2019-02-12T12:18:48.865Z,6.59
2019-02-12T12:19:48.844Z,6.80
2019-02-12T12:20:48.825Z,6.77
2019-02-12T12:21:48.797Z,6.68
2019-02-12T12:22:48.777Z,6.63
2019-02-12T12:23:48.760Z,6.46
2019-02-12T12:24:51.545Z,6.51
2019-02-12T12:25:48.710Z,6.47
2019-02-12T12:26:48.687Z,6.47
2019-02-12T12:27:48.668Z,6.59
2019-02-12T12:28:48.657Z,6.63
2019-02-12T12:29:48.626Z,6.47
2019-02-12T12:30:48.606Z,6.46
2019-02-12T12:31:48.584Z,6.56
2019-02-12T12:32:48.559Z,6.56
2019-02-12T12:33:48.533Z,6.51
2019-02-12T12:34:48.520Z,6.65
2019-02-12T12:35:48.496Z,6.71
2019-02-12T12:36:48.469Z,6.69
2019-02-12T12:37:48.450Z,6.69
2019-02-12T12:38:48.423Z,6.80
2019-02-12T12:39:48.404Z,6.86
2019-02-12T12:40:48.385Z,6.81
2019-02-12T12:41:48.364Z,6.83
2019-02-12T12:42:48.340Z,7.07
2019-02-12T12:43:48.351Z,6.89
2019-02-12T12:44:48.299Z,6.79
2019-02-12T12:45:48.275Z,6.72
2019-02-12T12:46:48.250Z,6.76
2019-02-12T12:47:48.225Z,6.83
2019-02-12T12:48:48.212Z,6.84
2019-02-12T12:49:48.189Z,6.90
2019-02-12T12:50:48.161Z,6.91
2019-02-12T12:51:48.159Z,6.94
2019-02-12T12:52:48.125Z,6.95
2019-02-12T12:53:48.106Z,6.98
2019-02-12T12:54:48.071Z,6.94
2019-02-12T12:55:48.067Z,7.07
2019-02-12T12:56:48.048Z,7.08
2019-02-12T12:57:48.010Z,7.22
2019-02-12T12:58:47.991Z,7.08
2019-02-12T12:59:47.967Z,7.15
2019-02-12T13:00:47.963Z,7.40
2019-02-12T13:01:47.922Z,7.26
2019-02-12T13:02:47.898Z,7.35
2019-02-12T13:03:47.884Z,7.44
2019-02-12T13:04:47.863Z,7.40
2019-02-12T13:05:47.836Z,7.41
2019-02-12T13:06:47.814Z,7.58
2019-02-12T13:07:47.794Z,7.53
2019-02-12T13:08:47.779Z,7.66
2019-02-12T13:09:47.756Z,7.59
2019-02-12T13:10:47.734Z,7.74
2019-02-12T13:11:47.711Z,7.77
2019-02-12T13:12:47.688Z,7.74
2019-02-12T13:13:47.984Z,7.71
2019-02-12T13:14:47.650Z,7.71
2019-02-12T13:15:47.625Z,7.72
2019-02-12T13:16:47.603Z,7.47